sensor_id;sensor_type;location;lat;lon;timestamp;P1;durP1;ratioP1;P2;durP2;ratioP2
27003;SDS011;14546;47.590;19.022;2022-10-28T00:01:23;41.13;;;24.83;;
27003;SDS011;14546;47.590;19.022;2022-10-28T00:03:51;43.05;;;25.75;;
27003;SDS011;14546;47.590;19.022;2022-10-28T00:06:22;48.10;;;27.85;;
27003;SDS011;14546;47.590;19.022;2022-10-28T00:08:49;45.33;;;27.30;;
27003;SDS011;14546;47.590;19.022;2022-10-28T00:11:16;41.80;;;26.08;;
27003;SDS011;14546;47.590;19.022;2022-10-28T00:13:43;45.95;;;27.42;;
27003;SDS011;14546;47.590;19.022;2022-10-28T00:18:36;44.63;;;27.30;;
27003;SDS011;14546;47.590;19.022;2022-10-28T00:21:03;43.95;;;25.10;;
27003;SDS011;14546;47.590;19.022;2022-10-28T00:23:29;46.63;;;28.05;;
27003;SDS011;14546;47.590;19.022;2022-10-28T00:26:01;49.25;;;27.48;;
27003;SDS011;14546;47.590;19.022;2022-10-28T00:28:27;57.22;;;28.35;;
27003;SDS011;14546;47.590;19.022;2022-10-28T00:30:53;43.63;;;27.20;;
27003;SDS011;14546;47.590;19.022;2022-10-28T00:33:19;45.92;;;25.92;;
27003;SDS011;14546;47.590;19.022;2022-10-28T00:35:45;43.90;;;27.55;;
27003;SDS011;14546;47.590;19.022;2022-10-28T00:38:11;40.40;;;25.92;;
27003;SDS011;14546;47.590;19.022;2022-10-28T00:40:37;45.47;;;25.83;;
27003;SDS011;14546;47.590;19.022;2022-10-28T00:43:03;41.67;;;26.10;;
27003;SDS011;14546;47.590;19.022;2022-10-28T00:45:29;43.53;;;26.45;;
27003;SDS011;14546;47.590;19.022;2022-10-28T00:47:59;44.65;;;26.65;;
27003;SDS011;14546;47.590;19.022;2022-10-28T00:50:29;42.63;;;26.88;;
27003;SDS011;14546;47.590;19.022;2022-10-28T00:52:59;41.72;;;26.65;;
27003;SDS011;14546;47.590;19.022;2022-10-28T00:55:26;40.50;;;25.98;;
27003;SDS011;14546;47.590;19.022;2022-10-28T00:57:53;43.83;;;28.73;;
27003;SDS011;14546;47.590;19.022;2022-10-28T01:00:20;44.97;;;27.88;;
27003;SDS011;14546;47.590;19.022;2022-10-28T01:02:47;51.38;;;29.33;;
27003;SDS011;14546;47.590;19.022;2022-10-28T01:05:16;49.00;;;28.75;;
27003;SDS011;14546;47.590;19.022;2022-10-28T01:07:43;51.15;;;29.13;;
27003;SDS011;14546;47.590;19.022;2022-10-28T01:10:10;49.63;;;29.83;;
27003;SDS011;14546;47.590;19.022;2022-10-28T01:12:44;47.92;;;29.63;;
27003;SDS011;14546;47.590;19.022;2022-10-28T01:33:35;48.30;;;30.02;;
27003;SDS011;14546;47.590;19.022;2022-10-28T01:38:54;46.78;;;29.55;;
27003;SDS011;14546;47.590;19.022;2022-10-28T01:46:46;49.63;;;30.02;;
27003;SDS011;14546;47.590;19.022;2022-10-28T01:49:37;52.33;;;30.55;;
27003;SDS011;14546;47.590;19.022;2022-10-28T01:52:08;50.28;;;30.63;;
27003;SDS011;14546;47.590;19.022;2022-10-28T01:54:35;55.30;;;32.42;;
27003;SDS011;14546;47.590;19.022;2022-10-28T01:57:03;59.10;;;32.38;;
27003;SDS011;14546;47.590;19.022;2022-10-28T01:59:30;53.20;;;31.35;;
27003;SDS011;14546;47.590;19.022;2022-10-28T02:01:57;57.90;;;34.35;;
27003;SDS011;14546;47.590;19.022;2022-10-28T02:04:23;64.28;;;34.30;;
27003;SDS011;14546;47.590;19.022;2022-10-28T02:06:50;60.25;;;33.55;;
27003;SDS011;14546;47.590;19.022;2022-10-28T02:22:51;58.45;;;31.92;;
27003;SDS011;14546;47.590;19.022;2022-10-28T02:25:18;53.00;;;31.85;;
27003;SDS011;14546;47.590;19.022;2022-10-28T02:30:19;58.47;;;34.20;;
27003;SDS011;14546;47.590;19.022;2022-10-28T02:32:48;63.85;;;34.20;;
27003;SDS011;14546;47.590;19.022;2022-10-28T02:35:16;61.88;;;35.95;;
27003;SDS011;14546;47.590;19.022;2022-10-28T02:37:44;63.85;;;36.13;;
27003;SDS011;14546;47.590;19.022;2022-10-28T02:40:11;63.13;;;34.33;;
27003;SDS011;14546;47.590;19.022;2022-10-28T02:42:40;57.97;;;35.10;;
27003;SDS011;14546;47.590;19.022;2022-10-28T02:45:08;61.42;;;35.15;;
27003;SDS011;14546;47.590;19.022;2022-10-28T02:47:35;63.45;;;35.55;;
27003;SDS011;14546;47.590;19.022;2022-10-28T02:50:05;56.97;;;35.45;;
27003;SDS011;14546;47.590;19.022;2022-10-28T02:52:32;57.25;;;34.30;;
27003;SDS011;14546;47.590;19.022;2022-10-28T02:54:59;58.10;;;33.97;;
27003;SDS011;14546;47.590;19.022;2022-10-28T02:57:28;61.35;;;36.00;;
27003;SDS011;14546;47.590;19.022;2022-10-28T02:59:57;64.05;;;35.78;;
27003;SDS011;14546;47.590;19.022;2022-10-28T03:02:24;64.38;;;37.10;;
27003;SDS011;14546;47.590;19.022;2022-10-28T03:04:50;64.85;;;37.97;;
27003;SDS011;14546;47.590;19.022;2022-10-28T03:07:16;63.80;;;36.60;;
27003;SDS011;14546;47.590;19.022;2022-10-28T03:09:42;68.82;;;37.10;;
27003;SDS011;14546;47.590;19.022;2022-10-28T03:12:08;66.38;;;36.35;;
27003;SDS011;14546;47.590;19.022;2022-10-28T03:14:34;64.75;;;37.00;;
27003;SDS011;14546;47.590;19.022;2022-10-28T03:17:00;66.13;;;37.08;;
27003;SDS011;14546;47.590;19.022;2022-10-28T03:19:26;70.05;;;37.88;;
27003;SDS011;14546;47.590;19.022;2022-10-28T03:21:52;72.72;;;39.78;;
27003;SDS011;14546;47.590;19.022;2022-10-28T03:24:18;75.43;;;40.08;;
27003;SDS011;14546;47.590;19.022;2022-10-28T03:26:44;72.88;;;37.92;;
27003;SDS011;14546;47.590;19.022;2022-10-28T03:29:10;74.35;;;39.83;;
27003;SDS011;14546;47.590;19.022;2022-10-28T03:31:36;80.75;;;39.75;;
27003;SDS011;14546;47.590;19.022;2022-10-28T03:34:02;67.70;;;38.50;;
27003;SDS011;14546;47.590;19.022;2022-10-28T03:36:28;74.85;;;39.70;;
27003;SDS011;14546;47.590;19.022;2022-10-28T03:38:54;67.35;;;39.15;;
27003;SDS011;14546;47.590;19.022;2022-10-28T03:41:20;70.93;;;38.50;;
27003;SDS011;14546;47.590;19.022;2022-10-28T03:43:46;72.30;;;39.25;;
27003;SDS011;14546;47.590;19.022;2022-10-28T03:46:12;74.72;;;38.45;;
27003;SDS011;14546;47.590;19.022;2022-10-28T03:48:38;73.43;;;39.47;;
27003;SDS011;14546;47.590;19.022;2022-10-28T03:51:04;77.05;;;40.33;;
27003;SDS011;14546;47.590;19.022;2022-10-28T03:53:30;76.43;;;40.55;;
27003;SDS011;14546;47.590;19.022;2022-10-28T03:55:57;78.22;;;38.92;;
27003;SDS011;14546;47.590;19.022;2022-10-28T03:58:23;79.63;;;40.42;;
27003;SDS011;14546;47.590;19.022;2022-10-28T04:00:50;74.55;;;39.67;;
27003;SDS011;14546;47.590;19.022;2022-10-28T04:03:16;88.10;;;41.33;;
27003;SDS011;14546;47.590;19.022;2022-10-28T04:05:43;89.93;;;42.17;;
27003;SDS011;14546;47.590;19.022;2022-10-28T04:08:09;88.50;;;43.17;;
27003;SDS011;14546;47.590;19.022;2022-10-28T04:10:35;85.18;;;40.65;;
27003;SDS011;14546;47.590;19.022;2022-10-28T04:13:02;80.72;;;40.50;;
27003;SDS011;14546;47.590;19.022;2022-10-28T04:15:28;91.60;;;43.17;;
27003;SDS011;14546;47.590;19.022;2022-10-28T04:17:54;92.13;;;42.67;;
27003;SDS011;14546;47.590;19.022;2022-10-28T04:20:21;96.75;;;44.08;;
27003;SDS011;14546;47.590;19.022;2022-10-28T04:22:47;89.10;;;43.45;;
27003;SDS011;14546;47.590;19.022;2022-10-28T04:25:13;99.93;;;44.38;;
27003;SDS011;14546;47.590;19.022;2022-10-28T04:27:39;93.85;;;43.40;;
27003;SDS011;14546;47.590;19.022;2022-10-28T04:30:05;110.70;;;44.83;;
27003;SDS011;14546;47.590;19.022;2022-10-28T04:32:31;93.75;;;43.60;;
27003;SDS011;14546;47.590;19.022;2022-10-28T04:34:57;98.85;;;46.10;;
27003;SDS011;14546;47.590;19.022;2022-10-28T04:37:23;136.38;;;48.42;;
27003;SDS011;14546;47.590;19.022;2022-10-28T04:39:49;107.32;;;46.45;;
27003;SDS011;14546;47.590;19.022;2022-10-28T04:42:15;115.10;;;47.25;;
27003;SDS011;14546;47.590;19.022;2022-10-28T04:44:41;120.22;;;48.55;;
27003;SDS011;14546;47.590;19.022;2022-10-28T04:47:07;102.03;;;46.60;;
27003;SDS011;14546;47.590;19.022;2022-10-28T04:49:33;116.47;;;47.13;;
27003;SDS011;14546;47.590;19.022;2022-10-28T04:51:59;103.13;;;46.72;;
27003;SDS011;14546;47.590;19.022;2022-10-28T04:54:25;109.60;;;45.75;;
27003;SDS011;14546;47.590;19.022;2022-10-28T04:56:52;98.78;;;45.40;;
27003;SDS011;14546;47.590;19.022;2022-10-28T04:59:19;123.38;;;46.72;;
27003;SDS011;14546;47.590;19.022;2022-10-28T05:01:45;118.05;;;47.88;;
27003;SDS011;14546;47.590;19.022;2022-10-28T05:04:11;106.97;;;45.70;;
27003;SDS011;14546;47.590;19.022;2022-10-28T05:06:37;114.88;;;47.05;;
27003;SDS011;14546;47.590;19.022;2022-10-28T05:09:03;113.82;;;47.72;;
27003;SDS011;14546;47.590;19.022;2022-10-28T05:11:29;102.10;;;47.67;;
27003;SDS011;14546;47.590;19.022;2022-10-28T05:13:55;111.78;;;47.30;;
27003;SDS011;14546;47.590;19.022;2022-10-28T05:16:21;117.68;;;49.45;;
27003;SDS011;14546;47.590;19.022;2022-10-28T05:18:46;152.32;;;48.50;;
27003;SDS011;14546;47.590;19.022;2022-10-28T05:21:12;115.68;;;50.20;;
27003;SDS011;14546;47.590;19.022;2022-10-28T05:23:38;144.02;;;48.70;;
27003;SDS011;14546;47.590;19.022;2022-10-28T05:26:04;130.98;;;50.33;;
27003;SDS011;14546;47.590;19.022;2022-10-28T05:28:31;128.90;;;48.67;;
27003;SDS011;14546;47.590;19.022;2022-10-28T05:30:57;132.50;;;48.38;;
27003;SDS011;14546;47.590;19.022;2022-10-28T05:33:23;136.02;;;48.92;;
27003;SDS011;14546;47.590;19.022;2022-10-28T05:35:49;132.23;;;48.60;;
27003;SDS011;14546;47.590;19.022;2022-10-28T05:38:15;130.23;;;48.90;;
27003;SDS011;14546;47.590;19.022;2022-10-28T05:40:42;121.97;;;47.45;;
27003;SDS011;14546;47.590;19.022;2022-10-28T05:43:08;233.68;;;52.92;;
27003;SDS011;14546;47.590;19.022;2022-10-28T05:45:35;136.88;;;49.30;;
27003;SDS011;14546;47.590;19.022;2022-10-28T05:48:01;199.18;;;51.70;;
27003;SDS011;14546;47.590;19.022;2022-10-28T05:50:27;179.75;;;49.70;;
27003;SDS011;14546;47.590;19.022;2022-10-28T05:52:54;177.27;;;54.28;;
27003;SDS011;14546;47.590;19.022;2022-10-28T05:55:21;253.48;;;55.30;;
27003;SDS011;14546;47.590;19.022;2022-10-28T05:57:48;178.55;;;53.08;;
27003;SDS011;14546;47.590;19.022;2022-10-28T06:00:15;155.82;;;52.35;;
27003;SDS011;14546;47.590;19.022;2022-10-28T06:02:42;172.48;;;54.45;;
27003;SDS011;14546;47.590;19.022;2022-10-28T06:05:08;174.27;;;53.45;;
27003;SDS011;14546;47.590;19.022;2022-10-28T06:07:34;176.80;;;51.03;;
27003;SDS011;14546;47.590;19.022;2022-10-28T06:10:01;163.32;;;50.42;;
27003;SDS011;14546;47.590;19.022;2022-10-28T06:12:27;239.20;;;50.60;;
27003;SDS011;14546;47.590;19.022;2022-10-28T06:14:53;150.68;;;48.22;;
27003;SDS011;14546;47.590;19.022;2022-10-28T06:17:19;147.20;;;49.10;;
27003;SDS011;14546;47.590;19.022;2022-10-28T06:19:45;231.02;;;51.03;;
27003;SDS011;14546;47.590;19.022;2022-10-28T06:22:11;122.05;;;43.40;;
27003;SDS011;14546;47.590;19.022;2022-10-28T06:24:37;121.63;;;40.42;;
27003;SDS011;14546;47.590;19.022;2022-10-28T06:27:03;136.52;;;39.20;;
27003;SDS011;14546;47.590;19.022;2022-10-28T06:29:29;107.13;;;39.47;;
27003;SDS011;14546;47.590;19.022;2022-10-28T06:31:56;103.57;;;37.70;;
27003;SDS011;14546;47.590;19.022;2022-10-28T06:34:22;195.90;;;38.03;;
27003;SDS011;14546;47.590;19.022;2022-10-28T06:36:48;115.93;;;39.13;;
27003;SDS011;14546;47.590;19.022;2022-10-28T06:39:14;147.52;;;38.05;;
27003;SDS011;14546;47.590;19.022;2022-10-28T06:41:40;112.90;;;37.63;;
27003;SDS011;14546;47.590;19.022;2022-10-28T06:44:06;103.55;;;35.17;;
27003;SDS011;14546;47.590;19.022;2022-10-28T06:46:32;110.25;;;36.20;;
27003;SDS011;14546;47.590;19.022;2022-10-28T06:48:58;103.15;;;34.92;;
27003;SDS011;14546;47.590;19.022;2022-10-28T06:51:27;119.40;;;34.40;;
27003;SDS011;14546;47.590;19.022;2022-10-28T06:53:53;131.50;;;35.83;;
27003;SDS011;14546;47.590;19.022;2022-10-28T06:56:19;112.75;;;33.35;;
27003;SDS011;14546;47.590;19.022;2022-10-28T06:58:49;106.55;;;33.35;;
27003;SDS011;14546;47.590;19.022;2022-10-28T07:01:15;120.57;;;32.55;;
27003;SDS011;14546;47.590;19.022;2022-10-28T07:03:41;139.77;;;31.23;;
27003;SDS011;14546;47.590;19.022;2022-10-28T07:06:07;151.07;;;31.55;;
27003;SDS011;14546;47.590;19.022;2022-10-28T07:08:33;78.60;;;29.23;;
27003;SDS011;14546;47.590;19.022;2022-10-28T07:10:59;74.93;;;28.83;;
27003;SDS011;14546;47.590;19.022;2022-10-28T07:13:26;85.00;;;29.92;;
27003;SDS011;14546;47.590;19.022;2022-10-28T07:15:53;78.78;;;27.73;;
27003;SDS011;14546;47.590;19.022;2022-10-28T07:18:19;75.13;;;26.67;;
27003;SDS011;14546;47.590;19.022;2022-10-28T07:20:45;96.38;;;26.52;;
27003;SDS011;14546;47.590;19.022;2022-10-28T07:23:12;113.32;;;27.15;;
27003;SDS011;14546;47.590;19.022;2022-10-28T07:25:38;68.57;;;26.15;;
27003;SDS011;14546;47.590;19.022;2022-10-28T07:28:04;67.97;;;26.73;;
27003;SDS011;14546;47.590;19.022;2022-10-28T07:30:30;78.57;;;28.27;;
27003;SDS011;14546;47.590;19.022;2022-10-28T07:32:57;73.95;;;27.70;;
27003;SDS011;14546;47.590;19.022;2022-10-28T07:35:25;70.50;;;28.98;;
27003;SDS011;14546;47.590;19.022;2022-10-28T07:37:51;68.50;;;26.70;;
27003;SDS011;14546;47.590;19.022;2022-10-28T07:40:17;81.95;;;27.00;;
27003;SDS011;14546;47.590;19.022;2022-10-28T07:42:43;82.93;;;28.05;;
27003;SDS011;14546;47.590;19.022;2022-10-28T07:45:09;81.68;;;28.33;;
27003;SDS011;14546;47.590;19.022;2022-10-28T07:47:35;74.03;;;29.58;;
27003;SDS011;14546;47.590;19.022;2022-10-28T07:50:01;66.10;;;28.17;;
27003;SDS011;14546;47.590;19.022;2022-10-28T07:52:27;91.00;;;28.73;;
27003;SDS011;14546;47.590;19.022;2022-10-28T07:54:53;94.25;;;29.05;;
27003;SDS011;14546;47.590;19.022;2022-10-28T07:57:19;69.75;;;27.95;;
27003;SDS011;14546;47.590;19.022;2022-10-28T07:59:45;89.65;;;30.63;;
27003;SDS011;14546;47.590;19.022;2022-10-28T08:02:19;77.97;;;29.92;;
27003;SDS011;14546;47.590;19.022;2022-10-28T08:04:45;99.25;;;32.05;;
27003;SDS011;14546;47.590;19.022;2022-10-28T08:07:11;89.72;;;31.10;;
27003;SDS011;14546;47.590;19.022;2022-10-28T08:09:38;104.72;;;30.50;;
27003;SDS011;14546;47.590;19.022;2022-10-28T08:12:04;94.85;;;30.33;;
27003;SDS011;14546;47.590;19.022;2022-10-28T08:14:30;90.35;;;30.63;;
27003;SDS011;14546;47.590;19.022;2022-10-28T08:16:56;108.18;;;33.58;;
27003;SDS011;14546;47.590;19.022;2022-10-28T08:19:22;86.30;;;32.00;;
27003;SDS011;14546;47.590;19.022;2022-10-28T08:21:48;93.25;;;33.10;;
27003;SDS011;14546;47.590;19.022;2022-10-28T08:24:14;88.45;;;32.95;;
27003;SDS011;14546;47.590;19.022;2022-10-28T08:26:40;84.22;;;32.60;;
27003;SDS011;14546;47.590;19.022;2022-10-28T08:29:08;79.53;;;31.80;;
27003;SDS011;14546;47.590;19.022;2022-10-28T08:31:34;105.95;;;31.88;;
27003;SDS011;14546;47.590;19.022;2022-10-28T08:34:00;84.35;;;32.15;;
27003;SDS011;14546;47.590;19.022;2022-10-28T08:36:26;79.22;;;33.15;;
27003;SDS011;14546;47.590;19.022;2022-10-28T08:38:52;83.47;;;31.67;;
27003;SDS011;14546;47.590;19.022;2022-10-28T08:41:28;96.82;;;33.97;;
27003;SDS011;14546;47.590;19.022;2022-10-28T08:44:01;108.38;;;33.83;;
27003;SDS011;14546;47.590;19.022;2022-10-28T08:49:17;88.63;;;34.08;;
27003;SDS011;14546;47.590;19.022;2022-10-28T08:54:13;99.88;;;35.88;;
27003;SDS011;14546;47.590;19.022;2022-10-28T08:56:42;93.88;;;36.55;;
27003;SDS011;14546;47.590;19.022;2022-10-28T08:59:12;95.80;;;36.90;;
27003;SDS011;14546;47.590;19.022;2022-10-28T09:04:05;97.13;;;37.40;;
27003;SDS011;14546;47.590;19.022;2022-10-28T09:06:36;101.30;;;37.38;;
27003;SDS011;14546;47.590;19.022;2022-10-28T09:09:02;109.47;;;39.92;;
27003;SDS011;14546;47.590;19.022;2022-10-28T09:16:31;99.78;;;37.00;;
27003;SDS011;14546;47.590;19.022;2022-10-28T09:19:02;94.95;;;37.30;;
27003;SDS011;14546;47.590;19.022;2022-10-28T09:21:33;94.97;;;37.42;;
27003;SDS011;14546;47.590;19.022;2022-10-28T09:24:13;87.40;;;37.30;;
27003;SDS011;14546;47.590;19.022;2022-10-28T09:26:47;90.03;;;37.40;;
27003;SDS011;14546;47.590;19.022;2022-10-28T09:31:45;88.45;;;36.17;;
27003;SDS011;14546;47.590;19.022;2022-10-28T09:39:30;77.32;;;34.53;;
27003;SDS011;14546;47.590;19.022;2022-10-28T09:41:59;78.50;;;35.45;;
27003;SDS011;14546;47.590;19.022;2022-10-28T09:46:54;76.00;;;34.65;;
27003;SDS011;14546;47.590;19.022;2022-10-28T09:49:23;76.90;;;34.75;;
27003;SDS011;14546;47.590;19.022;2022-10-28T09:54:16;81.80;;;34.47;;
27003;SDS011;14546;47.590;19.022;2022-10-28T09:56:46;77.10;;;35.78;;
27003;SDS011;14546;47.590;19.022;2022-10-28T09:59:13;76.78;;;34.65;;
27003;SDS011;14546;47.590;19.022;2022-10-28T10:01:40;71.53;;;34.72;;
27003;SDS011;14546;47.590;19.022;2022-10-28T10:04:11;68.03;;;33.67;;
27003;SDS011;14546;47.590;19.022;2022-10-28T10:06:40;76.53;;;34.85;;
27003;SDS011;14546;47.590;19.022;2022-10-28T10:09:08;72.78;;;33.65;;
27003;SDS011;14546;47.590;19.022;2022-10-28T10:11:40;78.47;;;34.13;;
27003;SDS011;14546;47.590;19.022;2022-10-28T10:14:09;76.90;;;35.30;;
27003;SDS011;14546;47.590;19.022;2022-10-28T10:19:06;76.00;;;33.75;;
27003;SDS011;14546;47.590;19.022;2022-10-28T10:24:21;69.53;;;33.03;;
27003;SDS011;14546;47.590;19.022;2022-10-28T10:26:47;72.93;;;34.42;;
27003;SDS011;14546;47.590;19.022;2022-10-28T10:29:13;72.13;;;33.05;;
27003;SDS011;14546;47.590;19.022;2022-10-28T10:31:39;71.38;;;32.58;;
27003;SDS011;14546;47.590;19.022;2022-10-28T10:34:05;64.43;;;32.55;;
27003;SDS011;14546;47.590;19.022;2022-10-28T10:36:46;68.78;;;33.15;;
27003;SDS011;14546;47.590;19.022;2022-10-28T10:39:17;63.88;;;31.15;;
27003;SDS011;14546;47.590;19.022;2022-10-28T10:41:45;70.00;;;34.47;;
27003;SDS011;14546;47.590;19.022;2022-10-28T10:46:47;65.38;;;32.17;;
27003;SDS011;14546;47.590;19.022;2022-10-28T10:49:33;70.57;;;32.38;;
27003;SDS011;14546;47.590;19.022;2022-10-28T10:52:00;64.85;;;31.63;;
27003;SDS011;14546;47.590;19.022;2022-10-28T10:54:30;60.03;;;31.73;;
27003;SDS011;14546;47.590;19.022;2022-10-28T10:59:45;59.45;;;30.27;;
27003;SDS011;14546;47.590;19.022;2022-10-28T11:04:54;65.22;;;32.53;;
27003;SDS011;14546;47.590;19.022;2022-10-28T11:07:21;68.28;;;32.63;;
27003;SDS011;14546;47.590;19.022;2022-10-28T11:09:47;68.20;;;31.45;;
27003;SDS011;14546;47.590;19.022;2022-10-28T11:14:52;55.20;;;30.60;;
27003;SDS011;14546;47.590;19.022;2022-10-28T11:17:26;54.13;;;29.63;;
27003;SDS011;14546;47.590;19.022;2022-10-28T11:19:52;61.65;;;30.27;;
27003;SDS011;14546;47.590;19.022;2022-10-28T11:27:38;61.50;;;31.50;;
27003;SDS011;14546;47.590;19.022;2022-10-28T11:30:11;61.83;;;30.90;;
27003;SDS011;14546;47.590;19.022;2022-10-28T12:14:30;49.63;;;29.25;;
27003;SDS011;14546;47.590;19.022;2022-10-28T12:16:59;55.97;;;31.35;;
27003;SDS011;14546;47.590;19.022;2022-10-28T12:19:30;55.83;;;31.08;;
27003;SDS011;14546;47.590;19.022;2022-10-28T12:22:04;57.92;;;33.25;;
27003;SDS011;14546;47.590;19.022;2022-10-28T12:24:33;56.05;;;33.28;;
27003;SDS011;14546;47.590;19.022;2022-10-28T12:27:00;52.70;;;31.52;;
27003;SDS011;14546;47.590;19.022;2022-10-28T12:29:31;51.38;;;30.20;;
27003;SDS011;14546;47.590;19.022;2022-10-28T12:32:06;49.58;;;30.73;;
27003;SDS011;14546;47.590;19.022;2022-10-28T12:34:33;50.55;;;29.98;;
27003;SDS011;14546;47.590;19.022;2022-10-28T12:37:35;62.08;;;32.60;;
27003;SDS011;14546;47.590;19.022;2022-10-28T12:39:56;46.90;;;29.48;;
27003;SDS011;14546;47.590;19.022;2022-10-28T12:42:26;50.97;;;29.83;;
27003;SDS011;14546;47.590;19.022;2022-10-28T12:44:54;59.22;;;31.48;;
27003;SDS011;14546;47.590;19.022;2022-10-28T12:55:39;49.88;;;29.85;;
27003;SDS011;14546;47.590;19.022;2022-10-28T13:00:52;54.53;;;30.85;;
27003;SDS011;14546;47.590;19.022;2022-10-28T13:03:19;57.60;;;30.48;;
27003;SDS011;14546;47.590;19.022;2022-10-28T13:13:39;58.63;;;31.27;;
27003;SDS011;14546;47.590;19.022;2022-10-28T13:21:10;49.97;;;29.40;;
27003;SDS011;14546;47.590;19.022;2022-10-28T13:24:23;57.67;;;30.75;;
27003;SDS011;14546;47.590;19.022;2022-10-28T13:28:55;57.97;;;30.38;;
27003;SDS011;14546;47.590;19.022;2022-10-28T13:31:22;53.88;;;31.40;;
27003;SDS011;14546;47.590;19.022;2022-10-28T13:33:53;56.40;;;30.02;;
27003;SDS011;14546;47.590;19.022;2022-10-28T13:36:24;50.63;;;30.63;;
27003;SDS011;14546;47.590;19.022;2022-10-28T13:38:55;55.85;;;30.77;;
27003;SDS011;14546;47.590;19.022;2022-10-28T13:43:56;53.90;;;30.85;;
27003;SDS011;14546;47.590;19.022;2022-10-28T13:51:59;54.95;;;30.00;;
27003;SDS011;14546;47.590;19.022;2022-10-28T13:56:51;56.22;;;30.08;;
27003;SDS011;14546;47.590;19.022;2022-10-28T13:59:25;53.15;;;29.30;;
27003;SDS011;14546;47.590;19.022;2022-10-28T14:01:53;56.20;;;29.80;;
27003;SDS011;14546;47.590;19.022;2022-10-28T14:04:20;57.15;;;30.17;;
27003;SDS011;14546;47.590;19.022;2022-10-28T14:06:47;50.13;;;29.27;;
27003;SDS011;14546;47.590;19.022;2022-10-28T14:09:20;61.75;;;28.33;;
27003;SDS011;14546;47.590;19.022;2022-10-28T14:14:13;52.53;;;29.25;;
27003;SDS011;14546;47.590;19.022;2022-10-28T14:16:44;53.83;;;28.90;;
27003;SDS011;14546;47.590;19.022;2022-10-28T14:29:45;58.05;;;31.75;;
27003;SDS011;14546;47.590;19.022;2022-10-28T14:42:48;52.10;;;29.45;;
27003;SDS011;14546;47.590;19.022;2022-10-28T14:48:10;52.72;;;29.80;;
27003;SDS011;14546;47.590;19.022;2022-10-28T14:50:38;56.95;;;30.17;;
27003;SDS011;14546;47.590;19.022;2022-10-28T14:53:07;50.95;;;30.15;;
27003;SDS011;14546;47.590;19.022;2022-10-28T14:55:37;59.63;;;29.80;;
27003;SDS011;14546;47.590;19.022;2022-10-28T15:00:40;61.97;;;31.75;;
27003;SDS011;14546;47.590;19.022;2022-10-28T15:03:09;56.63;;;31.35;;
27003;SDS011;14546;47.590;19.022;2022-10-28T15:05:35;57.10;;;31.08;;
27003;SDS011;14546;47.590;19.022;2022-10-28T15:08:02;53.60;;;30.00;;
27003;SDS011;14546;47.590;19.022;2022-10-28T15:10:28;56.22;;;32.30;;
27003;SDS011;14546;47.590;19.022;2022-10-28T15:12:57;63.72;;;32.75;;
27003;SDS011;14546;47.590;19.022;2022-10-28T15:15:27;60.47;;;31.55;;
27003;SDS011;14546;47.590;19.022;2022-10-28T15:17:54;66.57;;;32.70;;
27003;SDS011;14546;47.590;19.022;2022-10-28T15:20:30;62.03;;;31.95;;
27003;SDS011;14546;47.590;19.022;2022-10-28T15:26:07;61.55;;;31.67;;
27003;SDS011;14546;47.590;19.022;2022-10-28T15:28:35;60.42;;;32.30;;
27003;SDS011;14546;47.590;19.022;2022-10-28T15:31:01;65.00;;;32.20;;
27003;SDS011;14546;47.590;19.022;2022-10-28T15:33:28;63.97;;;33.47;;
27003;SDS011;14546;47.590;19.022;2022-10-28T15:36:04;53.08;;;30.38;;
27003;SDS011;14546;47.590;19.022;2022-10-28T15:40:56;67.45;;;32.72;;
27003;SDS011;14546;47.590;19.022;2022-10-28T15:43:23;62.72;;;30.90;;
27003;SDS011;14546;47.590;19.022;2022-10-28T15:45:50;65.50;;;32.03;;
27003;SDS011;14546;47.590;19.022;2022-10-28T15:48:23;56.60;;;30.35;;
27003;SDS011;14546;47.590;19.022;2022-10-28T15:51:12;57.53;;;29.63;;
27003;SDS011;14546;47.590;19.022;2022-10-28T15:53:39;56.35;;;30.58;;
27003;SDS011;14546;47.590;19.022;2022-10-28T15:56:06;53.10;;;30.42;;
27003;SDS011;14546;47.590;19.022;2022-10-28T15:58:43;58.92;;;29.65;;
27003;SDS011;14546;47.590;19.022;2022-10-28T16:03:55;50.10;;;29.95;;
27003;SDS011;14546;47.590;19.022;2022-10-28T16:06:23;56.78;;;30.48;;
27003;SDS011;14546;47.590;19.022;2022-10-28T16:08:59;59.13;;;30.55;;
27003;SDS011;14546;47.590;19.022;2022-10-28T16:11:25;61.33;;;31.63;;
27003;SDS011;14546;47.590;19.022;2022-10-28T16:13:51;66.05;;;32.95;;
27003;SDS011;14546;47.590;19.022;2022-10-28T16:16:27;59.17;;;32.17;;
27003;SDS011;14546;47.590;19.022;2022-10-28T16:19:15;72.82;;;32.15;;
27003;SDS011;14546;47.590;19.022;2022-10-28T16:21:45;57.17;;;30.15;;
27003;SDS011;14546;47.590;19.022;2022-10-28T16:24:11;56.80;;;29.77;;
27003;SDS011;14546;47.590;19.022;2022-10-28T16:26:37;63.65;;;32.42;;
27003;SDS011;14546;47.590;19.022;2022-10-28T16:29:03;63.78;;;32.70;;
27003;SDS011;14546;47.590;19.022;2022-10-28T16:31:29;66.35;;;32.72;;
27003;SDS011;14546;47.590;19.022;2022-10-28T16:33:56;69.65;;;33.17;;
27003;SDS011;14546;47.590;19.022;2022-10-28T16:36:23;71.68;;;33.65;;
27003;SDS011;14546;47.590;19.022;2022-10-28T16:38:50;62.95;;;32.63;;
27003;SDS011;14546;47.590;19.022;2022-10-28T16:41:16;66.80;;;32.92;;
27003;SDS011;14546;47.590;19.022;2022-10-28T16:43:43;63.65;;;33.60;;
27003;SDS011;14546;47.590;19.022;2022-10-28T16:46:13;64.18;;;33.85;;
27003;SDS011;14546;47.590;19.022;2022-10-28T16:48:39;65.95;;;34.53;;
27003;SDS011;14546;47.590;19.022;2022-10-28T16:51:14;60.63;;;32.75;;
27003;SDS011;14546;47.590;19.022;2022-10-28T16:53:41;62.75;;;33.38;;
27003;SDS011;14546;47.590;19.022;2022-10-28T16:56:11;68.72;;;33.17;;
27003;SDS011;14546;47.590;19.022;2022-10-28T16:58:37;68.68;;;33.95;;
27003;SDS011;14546;47.590;19.022;2022-10-28T17:01:06;65.20;;;32.75;;
27003;SDS011;14546;47.590;19.022;2022-10-28T17:03:32;65.22;;;33.85;;
27003;SDS011;14546;47.590;19.022;2022-10-28T17:05:58;70.80;;;33.83;;
27003;SDS011;14546;47.590;19.022;2022-10-28T17:08:24;59.45;;;32.13;;
27003;SDS011;14546;47.590;19.022;2022-10-28T17:10:50;60.60;;;31.48;;
27003;SDS011;14546;47.590;19.022;2022-10-28T17:13:16;60.17;;;32.25;;
27003;SDS011;14546;47.590;19.022;2022-10-28T17:15:42;59.03;;;30.52;;
27003;SDS011;14546;47.590;19.022;2022-10-28T17:18:10;53.78;;;30.65;;
27003;SDS011;14546;47.590;19.022;2022-10-28T17:20:36;61.42;;;32.08;;
27003;SDS011;14546;47.590;19.022;2022-10-28T17:23:03;60.05;;;31.35;;
27003;SDS011;14546;47.590;19.022;2022-10-28T17:25:29;61.03;;;32.10;;
27003;SDS011;14546;47.590;19.022;2022-10-28T17:27:55;56.65;;;31.13;;
27003;SDS011;14546;47.590;19.022;2022-10-28T17:30:21;55.95;;;31.40;;
27003;SDS011;14546;47.590;19.022;2022-10-28T17:32:48;51.50;;;30.58;;
27003;SDS011;14546;47.590;19.022;2022-10-28T17:35:14;53.42;;;30.15;;
27003;SDS011;14546;47.590;19.022;2022-10-28T17:37:40;56.65;;;30.58;;